createdAt,value
2022-07-30T00:00:55.733Z,8.98
2022-07-30T00:03:23.568Z,9.07
2022-07-30T00:05:51.408Z,7.97
2022-07-30T00:08:19.109Z,8.35
2022-07-30T00:10:46.803Z,7.63
2022-07-30T00:13:18.256Z,10.70
2022-07-30T00:15:46.069Z,10.45
2022-07-30T00:18:15.242Z,9.15
2022-07-30T00:20:44.266Z,8.15
2022-07-30T00:23:12.184Z,8.57
2022-07-30T00:25:39.987Z,8.50
2022-07-30T00:28:07.810Z,8.38
2022-07-30T00:30:35.559Z,12.05
2022-07-30T00:33:03.574Z,11.77
2022-07-30T00:35:32.779Z,11.02
2022-07-30T00:38:00.511Z,10.43
2022-07-30T00:40:28.427Z,11.02
2022-07-30T00:42:56.209Z,9.40
2022-07-30T00:45:24.058Z,10.45
2022-07-30T00:47:51.831Z,8.10
2022-07-30T00:50:19.558Z,9.20
2022-07-30T00:52:50.922Z,9.43
2022-07-30T00:55:18.706Z,9.20
2022-07-30T00:57:46.456Z,9.13
2022-07-30T01:00:17.302Z,9.38
2022-07-30T01:02:45.250Z,7.78
2022-07-30T01:05:13.224Z,9.93
2022-07-30T01:07:41.024Z,9.57
2022-07-30T01:10:12.524Z,11.63
2022-07-30T01:12:41.535Z,13.37
2022-07-30T01:15:11.231Z,9.68
2022-07-30T01:17:39.174Z,8.15
2022-07-30T01:20:10.632Z,8.07
2022-07-30T01:22:48.890Z,8.52
2022-07-30T01:25:30.218Z,9.05
2022-07-30T01:28:01.877Z,10.88
2022-07-30T01:30:32.630Z,10.90
2022-07-30T01:33:03.755Z,10.07
2022-07-30T01:35:34.250Z,9.77
2022-07-30T01:38:05.405Z,11.82
2022-07-30T01:40:33.770Z,10.93
2022-07-30T01:43:04.260Z,10.50
2022-07-30T01:45:33.856Z,9.90
2022-07-30T01:48:12.236Z,10.30
2022-07-30T01:50:45.172Z,10.48
2022-07-30T01:53:16.749Z,10.25
2022-07-30T01:55:45.542Z,11.70
2022-07-30T01:58:17.572Z,12.73
2022-07-30T02:00:47.784Z,9.82
2022-07-30T02:03:15.754Z,14.18
2022-07-30T02:05:52.668Z,13.23
2022-07-30T02:08:28.752Z,12.80
2022-07-30T02:11:01.589Z,10.88
2022-07-30T02:13:32.041Z,11.50
2022-07-30T02:16:06.473Z,15.25
2022-07-30T02:18:40.083Z,11.80
2022-07-30T02:21:10.858Z,10.90
2022-07-30T02:23:45.255Z,10.80
2022-07-30T02:26:16.018Z,11.43
2022-07-30T02:28:48.884Z,13.45
2022-07-30T02:31:20.664Z,15.05
2022-07-30T02:33:50.923Z,15.27
2022-07-30T02:36:20.066Z,13.90
2022-07-30T02:38:50.702Z,15.02
2022-07-30T02:41:20.204Z,14.48
2022-07-30T02:43:50.889Z,15.25
2022-07-30T02:46:20.187Z,13.30
2022-07-30T02:48:50.280Z,17.58
2022-07-30T02:51:21.313Z,14.43
2022-07-30T02:53:51.995Z,12.93
2022-07-30T02:56:22.270Z,14.40
2022-07-30T02:58:52.848Z,14.35
2022-07-30T03:01:24.050Z,14.98
2022-07-30T03:03:53.158Z,14.55
2022-07-30T03:06:22.118Z,13.82
2022-07-30T03:08:50.523Z,18.13
2022-07-30T03:11:20.770Z,15.45
2022-07-30T03:13:48.739Z,17.20
2022-07-30T03:16:19.790Z,19.17
2022-07-30T03:18:49.245Z,14.48
2022-07-30T03:21:18.076Z,15.75
2022-07-30T03:23:47.903Z,17.80
2022-07-30T03:26:17.486Z,13.93
2022-07-30T03:28:47.060Z,19.90
2022-07-30T03:31:17.327Z,17.80
2022-07-30T03:33:46.435Z,13.07
2022-07-30T03:36:16.820Z,17.25
2022-07-30T03:38:46.079Z,18.65
2022-07-30T03:41:14.754Z,16.17
2022-07-30T03:43:43.044Z,17.77
2022-07-30T03:46:12.092Z,22.80
2022-07-30T03:48:42.285Z,18.45
2022-07-30T03:51:10.986Z,20.58
2022-07-30T03:53:41.312Z,20.65
2022-07-30T03:56:09.467Z,18.67
2022-07-30T03:58:38.746Z,21.55
2022-07-30T04:01:06.682Z,21.58
2022-07-30T04:03:35.015Z,14.98
2022-07-30T04:06:04.133Z,18.05
2022-07-30T04:08:32.354Z,14.65
2022-07-30T04:11:00.098Z,17.02
2022-07-30T04:13:27.875Z,21.92
2022-07-30T04:16:37.229Z,17.88
2022-07-30T04:18:51.636Z,17.65
2022-07-30T04:21:23.622Z,17.13
2022-07-30T04:24:02.173Z,15.52
2022-07-30T04:26:34.017Z,16.83
2022-07-30T04:29:05.245Z,19.80
2022-07-30T04:31:40.597Z,15.77
2022-07-30T04:34:09.549Z,15.57
2022-07-30T04:36:40.542Z,22.13
2022-07-30T04:39:09.986Z,17.45
2022-07-30T04:41:48.787Z,20.35
2022-07-30T04:44:18.255Z,20.85
2022-07-30T04:46:46.216Z,26.08
2022-07-30T04:49:16.934Z,32.33
2022-07-30T04:51:47.583Z,30.90
2022-07-30T04:54:17.043Z,30.05
2022-07-30T04:56:53.136Z,32.83
2022-07-30T04:59:24.767Z,31.65
2022-07-30T05:01:53.254Z,50.85
2022-07-30T05:04:23.065Z,30.95
2022-07-30T05:06:53.185Z,43.15
2022-07-30T05:09:21.198Z,57.75
2022-07-30T05:11:52.627Z,44.20
2022-07-30T05:14:20.547Z,49.78
2022-07-30T05:16:48.319Z,46.53
2022-07-30T05:19:16.025Z,50.25
2022-07-30T05:21:43.787Z,57.85
2022-07-30T05:24:13.202Z,57.95
2022-07-30T05:26:41.573Z,59.85
2022-07-30T05:29:09.420Z,51.47
2022-07-30T05:31:46.402Z,64.00
2022-07-30T05:34:14.488Z,77.07
2022-07-30T05:36:42.757Z,57.78
2022-07-30T05:39:11.862Z,73.60
2022-07-30T05:41:39.572Z,56.28
2022-07-30T05:44:07.362Z,54.55
2022-07-30T05:46:35.339Z,62.22
2022-07-30T05:49:03.609Z,53.45
2022-07-30T05:51:31.369Z,54.50
2022-07-30T05:53:59.138Z,44.30
2022-07-30T05:56:28.204Z,51.83
2022-07-30T05:58:56.100Z,43.70
2022-07-30T06:01:23.874Z,39.38
2022-07-30T06:03:51.583Z,44.78
2022-07-30T06:06:22.926Z,61.20
2022-07-30T06:08:51.108Z,60.17
2022-07-30T06:11:18.960Z,56.17
2022-07-30T06:13:48.047Z,52.85
2022-07-30T06:16:16.051Z,69.65
2022-07-30T06:18:43.803Z,80.97
2022-07-30T06:21:11.622Z,69.70
2022-07-30T06:23:39.342Z,67.88
2022-07-30T06:26:07.252Z,47.38
2022-07-30T06:28:37.954Z,37.33
2022-07-30T06:31:07.968Z,38.30
2022-07-30T06:33:35.827Z,29.45
2022-07-30T06:36:03.666Z,34.75
2022-07-30T06:38:31.495Z,34.53
2022-07-30T06:41:02.893Z,29.30
2022-07-30T06:43:32.293Z,28.77
2022-07-30T06:46:00.339Z,29.30
2022-07-30T06:48:31.391Z,31.52
2022-07-30T06:50:59.150Z,29.23
2022-07-30T06:53:26.927Z,27.55
2022-07-30T06:55:58.467Z,27.30
2022-07-30T06:58:29.195Z,28.67
2022-07-30T07:00:57.174Z,26.35
2022-07-30T07:03:26.234Z,24.23
2022-07-30T07:08:37.343Z,23.27
2022-07-30T07:11:05.071Z,23.42
2022-07-30T07:13:32.768Z,22.05
2022-07-30T07:16:00.583Z,21.17
2022-07-30T07:18:28.333Z,22.35
2022-07-30T07:20:56.112Z,21.52
2022-07-30T07:23:25.389Z,24.05
2022-07-30T07:26:07.709Z,22.60
2022-07-30T07:28:35.453Z,24.25
2022-07-30T07:31:03.317Z,19.73
2022-07-30T07:33:31.378Z,26.05
2022-07-30T07:35:59.124Z,23.77
2022-07-30T07:38:28.336Z,25.42
2022-07-30T07:40:56.132Z,25.63
2022-07-30T07:43:25.189Z,25.27
2022-07-30T07:45:53.037Z,20.90
2022-07-30T07:48:20.762Z,21.02
2022-07-30T07:50:49.021Z,19.83
2022-07-30T07:53:16.819Z,17.27
2022-07-30T07:55:45.967Z,18.63
2022-07-30T07:58:15.548Z,18.92
2022-07-30T08:00:53.350Z,17.00
2022-07-30T08:03:21.080Z,13.98
2022-07-30T08:05:53.858Z,12.82
2022-07-30T08:08:28.913Z,13.65
2022-07-30T08:10:58.083Z,13.05
2022-07-30T08:13:48.306Z,15.20
2022-07-30T08:16:14.583Z,10.93
2022-07-30T08:18:42.411Z,15.60
2022-07-30T08:21:15.670Z,12.07
2022-07-30T08:23:43.439Z,12.68
2022-07-30T08:26:12.588Z,10.20
2022-07-30T08:28:40.400Z,12.18
2022-07-30T08:31:08.168Z,13.32
2022-07-30T08:33:36.013Z,10.15
2022-07-30T08:36:09.122Z,12.98
2022-07-30T08:38:37.803Z,14.38
2022-07-30T08:41:05.674Z,16.13
2022-07-30T08:43:37.080Z,11.43
2022-07-30T08:46:09.238Z,11.03
2022-07-30T08:48:37.314Z,10.82
2022-07-30T08:51:05.594Z,11.63
2022-07-30T08:53:34.628Z,10.90
2022-07-30T08:56:02.890Z,10.80
2022-07-30T08:58:32.337Z,17.50
2022-07-30T09:01:01.539Z,12.45
2022-07-30T09:03:29.462Z,12.73
2022-07-30T09:05:57.210Z,10.35
2022-07-30T09:08:25.006Z,10.40
2022-07-30T09:10:53.049Z,10.73
2022-07-30T09:13:25.840Z,9.48
2022-07-30T09:15:54.300Z,12.68
2022-07-30T09:18:32.887Z,11.32
2022-07-30T09:21:02.248Z,11.55
2022-07-30T09:23:30.236Z,13.00
2022-07-30T09:26:00.543Z,8.68
2022-07-30T09:28:31.431Z,10.02
2022-07-30T09:30:59.352Z,9.68
2022-07-30T09:33:40.319Z,8.82
2022-07-30T09:36:10.187Z,8.65
2022-07-30T09:38:48.743Z,8.77
2022-07-30T09:41:37.835Z,9.52
2022-07-30T09:44:06.745Z,8.88
2022-07-30T09:46:47.302Z,8.88
2022-07-30T09:49:17.848Z,6.50
2022-07-30T09:51:55.967Z,8.27
2022-07-30T09:54:25.387Z,9.13
2022-07-30T09:57:23.136Z,7.55
2022-07-30T09:59:55.667Z,8.35
2022-07-30T10:02:32.377Z,6.57
2022-07-30T10:05:14.244Z,5.93
2022-07-30T10:07:51.281Z,7.07
2022-07-30T10:10:25.808Z,7.55
2022-07-30T10:12:59.066Z,5.28
2022-07-30T10:15:32.636Z,6.18
2022-07-30T10:18:01.610Z,5.18
2022-07-30T10:20:31.134Z,5.65
2022-07-30T10:23:07.800Z,7.90
2022-07-30T10:25:49.309Z,6.03
2022-07-30T10:28:23.140Z,6.13
2022-07-30T10:30:52.451Z,5.88
2022-07-30T10:33:36.609Z,6.43
2022-07-30T10:36:12.054Z,5.13
2022-07-30T10:38:42.934Z,6.38
2022-07-30T10:41:42.610Z,5.82
2022-07-30T10:44:26.679Z,8.23
2022-07-30T10:47:07.240Z,8.63
2022-07-30T10:49:40.912Z,4.63
2022-07-30T10:52:12.712Z,4.97
2022-07-30T10:54:42.707Z,6.18
2022-07-30T10:57:15.085Z,7.05
2022-07-30T11:00:15.441Z,5.95
2022-07-30T11:03:16.573Z,5.68
2022-07-30T11:05:48.208Z,5.10
2022-07-30T11:08:36.575Z,5.53
2022-07-30T11:11:19.362Z,4.90
2022-07-30T11:13:53.457Z,4.95
2022-07-30T11:16:23.764Z,6.53
2022-07-30T11:22:26.219Z,6.13
2022-07-30T11:24:56.566Z,6.57
2022-07-30T11:27:42.051Z,5.45
2022-07-30T11:30:34.855Z,4.88
2022-07-30T11:33:32.882Z,8.02
2022-07-30T11:36:12.468Z,7.13
2022-07-30T11:39:03.647Z,6.35
2022-07-30T11:41:34.540Z,3.90
2022-07-30T11:44:28.541Z,3.40
2022-07-30T11:46:56.517Z,6.50
2022-07-30T11:49:24.364Z,4.30
2022-07-30T11:51:52.180Z,7.43
2022-07-30T11:54:20.028Z,5.57
2022-07-30T11:56:54.218Z,4.82
2022-07-30T11:59:22.198Z,6.60
2022-07-30T12:01:55.934Z,4.68
2022-07-30T12:04:24.443Z,8.05
2022-07-30T12:06:52.412Z,4.00
2022-07-30T12:09:27.592Z,3.95
2022-07-30T12:11:57.383Z,4.82
2022-07-30T12:14:25.468Z,6.43
2022-07-30T12:16:55.188Z,9.55
2022-07-30T12:19:23.095Z,5.20
2022-07-30T12:21:53.603Z,7.55
2022-07-30T12:24:26.712Z,6.25
2022-07-30T12:27:06.745Z,4.13
2022-07-30T12:29:35.598Z,5.03
2022-07-30T12:32:03.583Z,3.90
2022-07-30T12:34:31.491Z,4.70
2022-07-30T12:37:09.833Z,3.33
2022-07-30T12:39:37.788Z,4.60
2022-07-30T12:42:07.193Z,5.18
2022-07-30T12:44:36.888Z,5.05
2022-07-30T12:47:05.939Z,4.43
2022-07-30T12:49:39.334Z,5.00
2022-07-30T12:52:28.321Z,5.88
2022-07-30T12:55:05.940Z,4.00
2022-07-30T12:57:59.363Z,5.53
2022-07-30T13:00:33.203Z,5.47
2022-07-30T13:03:01.035Z,4.25
2022-07-30T13:05:48.398Z,3.60
2022-07-30T13:08:16.456Z,5.88
2022-07-30T13:10:59.207Z,6.28
2022-07-30T13:13:29.075Z,3.53
2022-07-30T13:16:01.516Z,5.53
2022-07-30T13:18:30.794Z,5.78
2022-07-30T13:20:59.134Z,5.25
2022-07-30T13:23:28.341Z,6.25
2022-07-30T13:25:56.276Z,3.22
2022-07-30T13:28:24.964Z,6.22
2022-07-30T13:30:54.172Z,5.18
2022-07-30T13:33:22.448Z,3.80
2022-07-30T13:35:50.243Z,3.42
2022-07-30T13:38:18.029Z,5.13
2022-07-30T13:40:45.917Z,2.53
2022-07-30T13:43:13.667Z,3.50
2022-07-30T13:45:41.459Z,2.60
2022-07-30T13:48:10.694Z,4.40
2022-07-30T13:50:38.542Z,5.40
2022-07-30T13:53:06.580Z,5.03
2022-07-30T13:55:34.504Z,4.63
2022-07-30T13:58:02.380Z,3.00
2022-07-30T14:00:32.523Z,3.80
2022-07-30T14:03:01.562Z,4.88
2022-07-30T14:05:31.022Z,3.58
2022-07-30T14:07:58.884Z,3.47
2022-07-30T14:10:26.752Z,3.83
2022-07-30T14:12:56.724Z,4.18
2022-07-30T14:15:25.484Z,2.95
2022-07-30T14:17:56.222Z,3.30
2022-07-30T14:20:25.112Z,2.57
2022-07-30T14:22:58.591Z,3.15
2022-07-30T14:25:26.446Z,3.40
2022-07-30T14:27:54.264Z,4.88
2022-07-30T14:30:24.474Z,2.40
2022-07-30T14:32:58.303Z,3.75
2022-07-30T14:35:28.360Z,4.38
2022-07-30T14:37:56.125Z,4.13
2022-07-30T14:40:25.445Z,4.00
2022-07-30T14:42:53.289Z,2.53
2022-07-30T14:45:24.340Z,2.38
2022-07-30T14:47:53.596Z,3.42
2022-07-30T14:50:21.395Z,2.88
2022-07-30T14:52:49.469Z,5.15
2022-07-30T14:55:17.430Z,3.03
2022-07-30T14:57:46.642Z,2.55
2022-07-30T15:00:15.349Z,2.55
2022-07-30T15:02:43.146Z,3.20
2022-07-30T15:05:11.039Z,6.10
2022-07-30T15:07:38.831Z,2.75
2022-07-30T15:10:08.265Z,3.67
2022-07-30T15:12:37.069Z,3.25
2022-07-30T15:15:07.800Z,3.95
2022-07-30T15:17:37.516Z,2.70
2022-07-30T15:20:07.791Z,4.22
2022-07-30T15:22:35.695Z,3.05
2022-07-30T15:25:03.545Z,3.03
2022-07-30T15:27:33.971Z,2.72
2022-07-30T15:30:02.726Z,2.53
2022-07-30T15:32:31.937Z,4.18
2022-07-30T15:34:59.811Z,3.65
2022-07-30T15:37:29.639Z,3.90
2022-07-30T15:39:57.451Z,2.30
2022-07-30T15:42:27.217Z,3.60
2022-07-30T15:45:15.911Z,3.55
2022-07-30T15:47:44.461Z,3.33
2022-07-30T15:50:12.270Z,3.95
2022-07-30T15:52:40.261Z,3.60
2022-07-30T15:55:09.409Z,4.90
2022-07-30T15:57:37.408Z,4.18
2022-07-30T16:00:07.556Z,5.03
2022-07-30T16:02:35.481Z,6.03
2022-07-30T16:05:19.002Z,4.60
2022-07-30T16:07:46.949Z,6.85
2022-07-30T16:10:14.918Z,5.38
2022-07-30T16:12:43.018Z,5.32
2022-07-30T16:15:11.514Z,2.80
2022-07-30T16:17:39.453Z,4.03
2022-07-30T16:20:23.725Z,3.80
2022-07-30T16:22:59.869Z,3.65
2022-07-30T16:25:35.212Z,3.70
2022-07-30T16:28:04.320Z,4.80
2022-07-30T16:30:50.502Z,5.32
2022-07-30T16:33:20.337Z,4.70
2022-07-30T16:35:52.912Z,3.45
2022-07-30T16:38:23.201Z,3.72
2022-07-30T16:40:51.212Z,3.08
2022-07-30T16:43:19.567Z,4.35
2022-07-30T16:45:48.130Z,3.78
2022-07-30T16:48:16.153Z,3.47
2022-07-30T16:50:44.933Z,4.95
2022-07-30T16:53:20.380Z,3.92
2022-07-30T16:55:49.479Z,2.83
2022-07-30T16:58:17.827Z,4.70
2022-07-30T17:00:49.334Z,5.50
2022-07-30T17:03:20.309Z,3.67
2022-07-30T17:05:50.433Z,3.22
2022-07-30T17:08:24.707Z,5.10
2022-07-30T17:10:53.413Z,5.43
2022-07-30T17:13:21.524Z,5.07
2022-07-30T17:15:49.752Z,3.55
2022-07-30T17:18:23.735Z,3.30
2022-07-30T17:20:52.057Z,3.55
2022-07-30T17:23:21.165Z,4.40
2022-07-30T17:25:48.988Z,3.33
2022-07-30T17:28:18.082Z,5.03
2022-07-30T17:30:46.126Z,3.83
2022-07-30T17:33:13.827Z,5.10
2022-07-30T17:35:41.599Z,3.40
2022-07-30T17:38:11.868Z,5.63
2022-07-30T17:41:05.817Z,5.25
2022-07-30T17:43:33.709Z,3.33
2022-07-30T17:46:01.539Z,4.22
2022-07-30T17:48:29.293Z,5.05
2022-07-30T17:50:57.820Z,3.45
2022-07-30T17:53:25.650Z,3.92
2022-07-30T17:55:57.658Z,7.93
2022-07-30T17:58:26.104Z,7.03
2022-07-30T18:00:59.031Z,4.90
2022-07-30T18:03:28.458Z,5.32
2022-07-30T18:05:57.201Z,4.95
2022-07-30T18:08:25.918Z,4.20
2022-07-30T18:10:56.371Z,3.13
2022-07-30T18:13:27.582Z,2.97
2022-07-30T18:15:55.488Z,4.27
2022-07-30T18:18:23.354Z,3.53
2022-07-30T18:20:51.207Z,4.93
2022-07-30T18:23:20.038Z,2.60
2022-07-30T18:25:53.195Z,3.47
2022-07-30T18:28:24.477Z,2.85
2022-07-30T18:30:52.437Z,4.28
2022-07-30T18:33:20.301Z,4.20
2022-07-30T18:35:48.367Z,4.97
2022-07-30T18:38:16.397Z,3.50
2022-07-30T18:40:44.974Z,3.80
2022-07-30T18:43:13.330Z,3.92
2022-07-30T18:45:47.402Z,2.80
2022-07-30T18:48:17.148Z,4.40
2022-07-30T18:50:45.126Z,4.82
2022-07-30T18:53:15.199Z,3.05
2022-07-30T18:55:43.919Z,3.17
2022-07-30T18:58:12.410Z,5.22
2022-07-30T19:00:43.267Z,6.00
2022-07-30T19:03:17.517Z,4.93
2022-07-30T19:05:48.988Z,5.07
2022-07-30T19:08:16.861Z,5.30
2022-07-30T19:10:44.983Z,6.80
2022-07-30T19:13:13.005Z,5.60
2022-07-30T19:15:40.873Z,7.07
2022-07-30T19:18:10.256Z,6.05
2022-07-30T19:20:39.496Z,4.80
2022-07-30T19:23:08.979Z,6.13
2022-07-30T19:25:39.205Z,5.05
2022-07-30T19:28:07.321Z,4.38
2022-07-30T19:30:35.638Z,3.88
2022-07-30T19:33:04.947Z,3.33
2022-07-30T19:35:33.028Z,5.53
2022-07-30T19:38:02.469Z,4.45
2022-07-30T19:40:30.577Z,5.13
2022-07-30T19:43:02.030Z,5.07
2022-07-30T19:45:47.490Z,4.50
2022-07-30T19:48:28.879Z,4.35
2022-07-30T19:51:02.589Z,5.32
2022-07-30T19:56:16.967Z,3.50
2022-07-30T19:58:47.377Z,4.05
2022-07-30T20:01:15.831Z,3.78
2022-07-30T20:03:45.805Z,4.70
2022-07-30T20:06:16.172Z,8.60
2022-07-30T20:08:46.146Z,4.75
2022-07-30T20:11:21.357Z,5.13
2022-07-30T20:14:04.979Z,5.63
2022-07-30T20:16:35.555Z,4.68
2022-07-30T20:19:04.544Z,5.38
2022-07-30T20:21:56.286Z,5.68
2022-07-30T20:24:26.745Z,4.57
2022-07-30T20:26:54.562Z,5.45
2022-07-30T20:29:33.220Z,4.75
2022-07-30T20:32:03.565Z,4.35
2022-07-30T20:34:32.657Z,6.82
2022-07-30T20:37:15.732Z,6.30
2022-07-30T20:39:51.982Z,3.88
2022-07-30T20:44:54.386Z,4.22
2022-07-30T20:47:38.104Z,6.20
2022-07-30T20:50:09.399Z,5.15
2022-07-30T20:52:46.802Z,6.70
2022-07-30T20:55:17.924Z,4.78
2022-07-30T20:57:56.699Z,5.30
2022-07-30T21:00:31.650Z,4.50
2022-07-30T21:02:59.555Z,4.63
2022-07-30T21:05:31.676Z,6.38
2022-07-30T21:08:00.050Z,5.15
2022-07-30T21:10:30.088Z,5.97
2022-07-30T21:13:03.489Z,6.63
2022-07-30T21:15:32.918Z,4.90
2022-07-30T21:18:01.639Z,4.65
2022-07-30T21:20:30.414Z,4.80
2022-07-30T21:23:04.987Z,6.50
2022-07-30T21:25:34.877Z,5.07
2022-07-30T21:28:27.751Z,3.20
2022-07-30T21:30:57.046Z,4.93
2022-07-30T21:33:31.259Z,7.93
2022-07-30T21:35:59.698Z,3.53
2022-07-30T21:38:27.723Z,3.92
2022-07-30T21:40:57.927Z,4.20
2022-07-30T21:43:30.152Z,4.80
2022-07-30T21:45:58.369Z,4.63
2022-07-30T21:48:26.477Z,4.90
2022-07-30T21:50:55.008Z,3.65
2022-07-30T21:53:29.921Z,4.70
2022-07-30T21:56:12.782Z,7.00
2022-07-30T21:58:40.747Z,6.32
2022-07-30T22:01:17.317Z,7.03
2022-07-30T22:04:04.538Z,5.32
2022-07-30T22:06:34.455Z,5.38
2022-07-30T22:09:03.474Z,6.13
2022-07-30T22:11:42.472Z,4.35
2022-07-30T22:14:10.922Z,4.30
2022-07-30T22:16:45.896Z,6.43
2022-07-30T22:19:14.753Z,3.47
2022-07-30T22:21:46.285Z,3.83
2022-07-30T22:24:29.473Z,6.10
2022-07-30T22:27:01.305Z,3.50
2022-07-30T22:29:34.142Z,3.72
2022-07-30T22:32:05.526Z,3.55
2022-07-30T22:34:33.799Z,4.07
2022-07-30T22:37:04.035Z,4.35
2022-07-30T22:39:50.702Z,4.82
2022-07-30T22:42:24.378Z,3.40
2022-07-30T22:44:54.849Z,2.75
2022-07-30T22:47:50.305Z,6.20
2022-07-30T22:50:12.812Z,4.60
2022-07-30T22:52:57.648Z,3.67
2022-07-30T22:55:33.263Z,5.13
2022-07-30T22:58:03.166Z,4.68
2022-07-30T23:00:31.440Z,3.45
2022-07-30T23:03:00.326Z,3.70
2022-07-30T23:05:28.272Z,3.97
2022-07-30T23:07:57.439Z,3.55
2022-07-30T23:10:27.735Z,4.15
2022-07-30T23:12:56.884Z,4.32
2022-07-30T23:15:28.416Z,5.60
2022-07-30T23:17:56.440Z,3.88
2022-07-30T23:20:26.404Z,4.07
2022-07-30T23:22:54.228Z,3.58
2022-07-30T23:25:22.936Z,5.45
2022-07-30T23:27:52.043Z,5.35
2022-07-30T23:30:20.157Z,4.57
2022-07-30T23:32:49.649Z,5.07
2022-07-30T23:35:17.572Z,4.50
2022-07-30T23:37:48.397Z,3.65
2022-07-30T23:40:17.837Z,4.93
2022-07-30T23:42:45.713Z,5.60
2022-07-30T23:45:13.960Z,7.25
2022-07-30T23:48:00.668Z,4.15
2022-07-30T23:50:32.148Z,4.00
2022-07-30T23:52:59.850Z,6.30
2022-07-30T23:55:28.156Z,5.40
2022-07-30T23:57:56.095Z,3.10
